sensor_id;sensor_type;location;lat;lon;timestamp;pressure;altitude;pressure_sealevel;temperature;humidity
20897;BME280;10608;42.600;23.398;2023-09-30T00:02:04;44999.50;;;-138.15;52.46
20897;BME280;10608;42.600;23.398;2023-09-30T00:04:30;45111.72;;;-138.15;50.98
20897;BME280;10608;42.600;23.398;2023-09-30T00:06:55;45038.88;;;-138.15;51.05
20897;BME280;10608;42.600;23.398;2023-09-30T00:09:21;45036.91;;;-138.15;50.50
20897;BME280;10608;42.600;23.398;2023-09-30T00:11:47;45032.97;;;-138.15;50.69
20897;BME280;10608;42.600;23.398;2023-09-30T00:14:12;44995.56;;;-138.15;50.37
20897;BME280;10608;42.600;23.398;2023-09-30T00:16:38;44948.31;;;-138.15;50.88
20897;BME280;10608;42.600;23.398;2023-09-30T00:19:03;44956.19;;;-138.15;50.48
20897;BME280;10608;42.600;23.398;2023-09-30T00:21:29;44934.53;;;-138.15;50.40
20897;BME280;10608;42.600;23.398;2023-09-30T00:23:55;44932.56;;;-138.15;50.51
20897;BME280;10608;42.600;23.398;2023-09-30T00:26:20;44966.03;;;-138.15;51.05
20897;BME280;10608;42.600;23.398;2023-09-30T00:28:47;44983.75;;;-138.15;51.57
20897;BME280;10608;42.600;23.398;2023-09-30T00:31:12;44918.78;;;-138.15;51.66
20897;BME280;10608;42.600;23.398;2023-09-30T00:33:38;44879.41;;;-138.15;52.60
20897;BME280;10608;42.600;23.398;2023-09-30T00:36:08;44891.22;;;-138.15;52.71
20897;BME280;10608;42.600;23.398;2023-09-30T00:38:34;44849.88;;;-138.15;52.52
20897;BME280;10608;42.600;23.398;2023-09-30T00:41:00;44816.41;;;-138.15;53.10
20897;BME280;10608;42.600;23.398;2023-09-30T00:43:25;44763.28;;;-138.15;53.27
20897;BME280;10608;42.600;23.398;2023-09-30T00:46:27;44686.50;;;-138.15;53.26
20897;BME280;10608;42.600;23.398;2023-09-30T00:48:55;44639.25;;;-138.15;53.65
20897;BME280;10608;42.600;23.398;2023-09-30T00:51:22;44550.69;;;-138.15;53.94
20897;BME280;10608;42.600;23.398;2023-09-30T00:53:49;44473.91;;;-138.15;53.85
20897;BME280;10608;42.600;23.398;2023-09-30T00:56:17;44438.50;;;-138.15;53.58
20897;BME280;10608;42.600;23.398;2023-09-30T00:58:45;44353.84;;;-138.15;53.56
20897;BME280;10608;42.600;23.398;2023-09-30T01:01:12;44344.00;;;-138.15;54.31
20897;BME280;10608;42.600;23.398;2023-09-30T01:03:38;44127.50;;;-138.15;54.96
20897;BME280;10608;42.600;23.398;2023-09-30T01:06:03;43936.59;;;-138.15;54.98
20897;BME280;10608;42.600;23.398;2023-09-30T01:08:29;43781.13;;;-138.15;53.87
20897;BME280;10608;42.600;23.398;2023-09-30T01:10:55;43836.22;;;-138.15;53.92
20897;BME280;10608;42.600;23.398;2023-09-30T01:13:21;43794.91;;;-138.15;53.68
20897;BME280;10608;42.600;23.398;2023-09-30T01:15:47;43724.06;;;-138.15;54.38
20897;BME280;10608;42.600;23.398;2023-09-30T01:18:12;43718.16;;;-138.15;53.90
20897;BME280;10608;42.600;23.398;2023-09-30T01:20:38;43694.53;;;-138.15;54.11
20897;BME280;10608;42.600;23.398;2023-09-30T01:23:04;43586.31;;;-138.15;54.82
20897;BME280;10608;42.600;23.398;2023-09-30T01:25:30;43578.44;;;-138.15;54.53
20897;BME280;10608;42.600;23.398;2023-09-30T01:27:55;43600.06;;;-138.15;53.99
20897;BME280;10608;42.600;23.398;2023-09-30T01:30:20;43582.38;;;-138.15;53.79
20897;BME280;10608;42.600;23.398;2023-09-30T01:32:48;43546.94;;;-138.15;53.73
20897;BME280;10608;42.600;23.398;2023-09-30T01:35:14;43523.31;;;-138.15;53.76
20897;BME280;10608;42.600;23.398;2023-09-30T01:37:39;43476.09;;;-138.15;53.95
20897;BME280;10608;42.600;23.398;2023-09-30T01:40:05;43450.50;;;-138.15;53.74
20897;BME280;10608;42.600;23.398;2023-09-30T01:42:33;43419.03;;;-138.15;54.02
20897;BME280;10608;42.600;23.398;2023-09-30T01:44:58;43417.06;;;-138.15;54.57
20897;BME280;10608;42.600;23.398;2023-09-30T01:47:24;43379.69;;;-138.15;55.13
20897;BME280;10608;42.600;23.398;2023-09-30T01:49:49;43373.78;;;-138.15;54.06
20897;BME280;10608;42.600;23.398;2023-09-30T01:52:15;43324.56;;;-138.15;55.02
20897;BME280;10608;42.600;23.398;2023-09-30T01:54:40;43281.28;;;-138.15;55.01
20897;BME280;10608;42.600;23.398;2023-09-30T01:57:06;43291.13;;;-138.15;53.95
20897;BME280;10608;42.600;23.398;2023-09-30T01:59:31;43314.75;;;-138.15;54.00
20897;BME280;10608;42.600;23.398;2023-09-30T02:01:56;43289.16;;;-138.15;54.12
20897;BME280;10608;42.600;23.398;2023-09-30T02:04:22;43318.69;;;-138.15;54.43
20897;BME280;10608;42.600;23.398;2023-09-30T02:06:48;43236.03;;;-138.15;55.15
20897;BME280;10608;42.600;23.398;2023-09-30T02:09:13;43175.03;;;-138.15;54.39
20897;BME280;10608;42.600;23.398;2023-09-30T02:11:39;43159.28;;;-138.15;55.29
20897;BME280;10608;42.600;23.398;2023-09-30T02:14:06;43121.91;;;-138.15;54.80
20897;BME280;10608;42.600;23.398;2023-09-30T02:16:31;43139.63;;;-138.15;54.73
20897;BME280;10608;42.600;23.398;2023-09-30T02:18:58;43088.44;;;-138.15;54.58
20897;BME280;10608;42.600;23.398;2023-09-30T02:21:23;43100.25;;;-138.15;54.41
20897;BME280;10608;42.600;23.398;2023-09-30T02:23:49;43092.38;;;-138.15;54.80
20897;BME280;10608;42.600;23.398;2023-09-30T02:26:15;43041.22;;;-138.15;55.57
20897;BME280;10608;42.600;23.398;2023-09-30T02:28:41;43043.19;;;-138.15;54.98
20897;BME280;10608;42.600;23.398;2023-09-30T02:31:06;43041.22;;;-138.15;55.44
20897;BME280;10608;42.600;23.398;2023-09-30T02:33:33;43009.75;;;-138.15;55.57
20897;BME280;10608;42.600;23.398;2023-09-30T02:36:01;42970.41;;;-138.15;55.94
20897;BME280;10608;42.600;23.398;2023-09-30T02:38:26;42950.72;;;-138.15;56.84
20897;BME280;10608;42.600;23.398;2023-09-30T02:40:53;42765.78;;;-138.15;57.22
20897;BME280;10608;42.600;23.398;2023-09-30T02:43:19;42720.53;;;-138.15;57.32
20897;BME280;10608;42.600;23.398;2023-09-30T02:45:45;42653.63;;;-138.15;57.20
20897;BME280;10608;42.600;23.398;2023-09-30T02:48:11;42569.03;;;-138.15;57.05
20897;BME280;10608;42.600;23.398;2023-09-30T02:50:36;42541.50;;;-138.15;57.16
20897;BME280;10608;42.600;23.398;2023-09-30T02:53:02;42484.44;;;-138.15;57.63
20897;BME280;10608;42.600;23.398;2023-09-30T02:55:27;42399.84;;;-138.15;58.21
20897;BME280;10608;42.600;23.398;2023-09-30T02:57:53;42317.22;;;-138.15;58.43
20897;BME280;10608;42.600;23.398;2023-09-30T03:00:18;42238.53;;;-138.15;58.60
20897;BME280;10608;42.600;23.398;2023-09-30T03:02:52;42216.88;;;-138.15;58.54
20897;BME280;10608;42.600;23.398;2023-09-30T03:05:18;42130.34;;;-138.15;58.60
20897;BME280;10608;42.600;23.398;2023-09-30T03:07:45;42096.88;;;-138.15;59.11
20897;BME280;10608;42.600;23.398;2023-09-30T03:10:10;42018.19;;;-138.15;59.14
20897;BME280;10608;42.600;23.398;2023-09-30T03:12:38;41996.56;;;-138.15;59.54
20897;BME280;10608;42.600;23.398;2023-09-30T03:15:04;41919.84;;;-138.15;60.03
20897;BME280;10608;42.600;23.398;2023-09-30T03:17:30;41864.78;;;-138.15;59.20
20897;BME280;10608;42.600;23.398;2023-09-30T03:20:00;41870.69;;;-138.15;58.99
20897;BME280;10608;42.600;23.398;2023-09-30T03:22:26;41837.22;;;-138.15;59.64
20897;BME280;10608;42.600;23.398;2023-09-30T03:24:52;41784.13;;;-138.15;59.43
20897;BME280;10608;42.600;23.398;2023-09-30T03:27:19;41695.63;;;-138.15;59.01
20897;BME280;10608;42.600;23.398;2023-09-30T03:29:45;41786.09;;;-138.15;58.67
20897;BME280;10608;42.600;23.398;2023-09-30T03:32:11;41754.63;;;-138.15;59.15
20897;BME280;10608;42.600;23.398;2023-09-30T03:34:37;41760.53;;;-138.15;58.91
20897;BME280;10608;42.600;23.398;2023-09-30T03:37:02;41736.91;;;-138.15;59.93
20897;BME280;10608;42.600;23.398;2023-09-30T03:39:28;41734.94;;;-138.15;59.11
20897;BME280;10608;42.600;23.398;2023-09-30T03:41:55;41766.44;;;-138.15;58.60
20897;BME280;10608;42.600;23.398;2023-09-30T03:44:22;41754.63;;;-138.15;57.97
20897;BME280;10608;42.600;23.398;2023-09-30T03:46:48;41746.75;;;-138.15;57.80
20897;BME280;10608;42.600;23.398;2023-09-30T03:49:15;41695.63;;;-138.15;58.37
20897;BME280;10608;42.600;23.398;2023-09-30T03:51:41;41782.16;;;-138.15;57.85
20897;BME280;10608;42.600;23.398;2023-09-30T03:54:06;41756.59;;;-138.15;57.83
20897;BME280;10608;42.600;23.398;2023-09-30T03:56:32;41754.63;;;-138.15;57.41
20897;BME280;10608;42.600;23.398;2023-09-30T03:58:57;41750.69;;;-138.15;58.38
20897;BME280;10608;42.600;23.398;2023-09-30T04:01:23;41795.94;;;-138.15;58.71
20897;BME280;10608;42.600;23.398;2023-09-30T04:03:50;41732.97;;;-138.15;59.58
20897;BME280;10608;42.600;23.398;2023-09-30T04:06:19;41658.25;;;-138.15;58.06
20897;BME280;10608;42.600;23.398;2023-09-30T04:08:45;41896.25;;;-138.15;55.50
20897;BME280;10608;42.600;23.398;2023-09-30T04:11:10;41864.78;;;-138.15;56.25
20897;BME280;10608;42.600;23.398;2023-09-30T04:13:40;41829.38;;;-138.15;57.36
20897;BME280;10608;42.600;23.398;2023-09-30T04:16:05;41831.34;;;-138.15;58.33
20897;BME280;10608;42.600;23.398;2023-09-30T04:18:30;41821.50;;;-138.15;58.41
20897;BME280;10608;42.600;23.398;2023-09-30T04:20:56;41815.59;;;-138.15;58.33
20897;BME280;10608;42.600;23.398;2023-09-30T04:23:22;41807.72;;;-138.15;58.66
20897;BME280;10608;42.600;23.398;2023-09-30T04:25:47;41841.16;;;-138.15;58.77
20897;BME280;10608;42.600;23.398;2023-09-30T04:28:13;41797.91;;;-138.15;59.53
20897;BME280;10608;42.600;23.398;2023-09-30T04:30:39;41817.56;;;-138.15;59.82
20897;BME280;10608;42.600;23.398;2023-09-30T04:33:05;41782.16;;;-138.15;60.12
20897;BME280;10608;42.600;23.398;2023-09-30T04:35:31;41770.34;;;-138.15;60.29
20897;BME280;10608;42.600;23.398;2023-09-30T04:37:56;41727.09;;;-138.15;60.39
20897;BME280;10608;42.600;23.398;2023-09-30T04:40:26;41715.28;;;-138.15;60.22
20897;BME280;10608;42.600;23.398;2023-09-30T04:42:51;41697.59;;;-138.15;60.01
20897;BME280;10608;42.600;23.398;2023-09-30T04:45:19;41725.13;;;-138.15;59.30
20897;BME280;10608;42.600;23.398;2023-09-30T04:47:49;41699.53;;;-138.15;58.91
20897;BME280;10608;42.600;23.398;2023-09-30T04:50:15;41672.00;;;-138.15;59.27
20897;BME280;10608;42.600;23.398;2023-09-30T04:52:42;41624.81;;;-138.15;58.71
20897;BME280;10608;42.600;23.398;2023-09-30T04:55:08;41599.22;;;-138.15;57.37
20897;BME280;10608;42.600;23.398;2023-09-30T04:57:34;41526.47;;;-138.15;55.11
20897;BME280;10608;42.600;23.398;2023-09-30T04:59:59;41439.91;;;-138.15;53.81
20897;BME280;10608;42.600;23.398;2023-09-30T05:02:25;41363.22;;;-138.15;51.73
20897;BME280;10608;42.600;23.398;2023-09-30T05:04:51;41323.88;;;-138.15;49.70
20897;BME280;10608;42.600;23.398;2023-09-30T05:07:17;41428.13;;;-138.15;45.91
20897;BME280;10608;42.600;23.398;2023-09-30T05:09:43;41435.97;;;-138.15;43.58
20897;BME280;10608;42.600;23.398;2023-09-30T05:12:09;41483.19;;;-138.15;41.56
20897;BME280;10608;42.600;23.398;2023-09-30T05:14:36;41502.84;;;-138.15;40.46
20897;BME280;10608;42.600;23.398;2023-09-30T05:17:04;41522.53;;;-138.15;39.45
20897;BME280;10608;42.600;23.398;2023-09-30T05:19:30;41473.34;;;-138.15;37.91
20897;BME280;10608;42.600;23.398;2023-09-30T05:21:57;41386.81;;;-138.15;36.28
20897;BME280;10608;42.600;23.398;2023-09-30T05:24:23;41435.97;;;-138.15;35.00
20897;BME280;10608;42.600;23.398;2023-09-30T05:26:48;41506.78;;;-138.15;34.04
20897;BME280;10608;42.600;23.398;2023-09-30T05:29:13;41404.50;;;-138.15;32.77
20897;BME280;10608;42.600;23.398;2023-09-30T05:31:39;41632.66;;;-138.15;31.56
20897;BME280;10608;42.600;23.398;2023-09-30T05:34:04;42069.34;;;-138.15;31.52
20897;BME280;10608;42.600;23.398;2023-09-30T05:36:30;41953.28;;;-138.15;30.61
20897;BME280;10608;42.600;23.398;2023-09-30T05:38:55;41976.91;;;-138.15;29.84
20897;BME280;10608;42.600;23.398;2023-09-30T05:41:21;42319.19;;;-138.15;29.67
20897;BME280;10608;42.600;23.398;2023-09-30T05:43:46;42173.59;;;-138.15;29.69
20897;BME280;10608;42.600;23.398;2023-09-30T05:46:12;42378.19;;;-138.15;29.53
20897;BME280;10608;42.600;23.398;2023-09-30T05:48:38;42252.28;;;-138.15;28.58
20897;BME280;10608;42.600;23.398;2023-09-30T05:51:05;41817.56;;;-138.15;27.75
20897;BME280;10608;42.600;23.398;2023-09-30T05:53:31;41758.56;;;-138.15;27.57
20897;BME280;10608;42.600;23.398;2023-09-30T05:55:58;42077.22;;;-138.15;27.51
20897;BME280;10608;42.600;23.398;2023-09-30T05:58:25;41974.94;;;-138.15;27.63
20897;BME280;10608;42.600;23.398;2023-09-30T06:00:52;41435.97;;;-138.15;26.40
20897;BME280;10608;42.600;23.398;2023-09-30T06:03:17;41382.88;;;-138.15;25.29
20897;BME280;10608;42.600;23.398;2023-09-30T06:05:42;41089.84;;;-138.15;24.48
20897;BME280;10608;42.600;23.398;2023-09-30T06:08:09;40761.44;;;-138.15;23.82
20897;BME280;10608;42.600;23.398;2023-09-30T06:10:39;40942.34;;;-138.15;23.45
20897;BME280;10608;42.600;23.398;2023-09-30T06:13:08;40828.28;;;-138.15;23.16
20897;BME280;10608;42.600;23.398;2023-09-30T06:15:37;40814.53;;;-138.15;23.33
20897;BME280;10608;42.600;23.398;2023-09-30T06:18:02;40960.03;;;-138.15;22.79
20897;BME280;10608;42.600;23.398;2023-09-30T06:20:29;40840.09;;;-138.15;22.20
20897;BME280;10608;42.600;23.398;2023-09-30T06:22:56;40920.72;;;-138.15;22.17
20897;BME280;10608;42.600;23.398;2023-09-30T06:25:22;40558.88;;;-138.15;21.54
20897;BME280;10608;42.600;23.398;2023-09-30T06:27:49;40177.44;;;-138.15;20.52
20897;BME280;10608;42.600;23.398;2023-09-30T06:30:16;39813.69;;;-138.15;20.75
20897;BME280;10608;42.600;23.398;2023-09-30T06:32:42;40366.19;;;-138.15;20.91
20897;BME280;10608;42.600;23.398;2023-09-30T06:35:08;39929.69;;;-138.15;20.12
20897;BME280;10608;42.600;23.398;2023-09-30T06:37:38;39829.44;;;-138.15;19.84
20897;BME280;10608;42.600;23.398;2023-09-30T06:40:09;40145.97;;;-138.15;19.59
20897;BME280;10608;42.600;23.398;2023-09-30T06:42:36;39933.63;;;-138.15;19.06
20897;BME280;10608;42.600;23.398;2023-09-30T06:45:02;38931.06;;;-138.15;18.33
20897;BME280;10608;42.600;23.398;2023-09-30T06:47:35;39615.13;;;-138.15;18.15
20897;BME280;10608;42.600;23.398;2023-09-30T06:50:02;38479.00;;;-138.15;17.13
20897;BME280;10608;42.600;23.398;2023-09-30T06:52:39;37895.34;;;-138.15;16.77
20897;BME280;10608;42.600;23.398;2023-09-30T06:55:06;37824.59;;;-138.15;16.29
20897;BME280;10608;42.600;23.398;2023-09-30T06:57:33;38416.13;;;-138.15;16.11
20897;BME280;10608;42.600;23.398;2023-09-30T06:59:58;38514.38;;;-138.15;15.89
20897;BME280;10608;42.600;23.398;2023-09-30T07:02:24;38274.63;;;-138.15;15.89
20897;BME280;10608;42.600;23.398;2023-09-30T07:04:49;37979.84;;;-138.15;15.77
20897;BME280;10608;42.600;23.398;2023-09-30T07:07:14;38042.72;;;-138.15;15.00
20897;BME280;10608;42.600;23.398;2023-09-30T07:09:40;39396.94;;;-138.15;15.73
20897;BME280;10608;42.600;23.398;2023-09-30T07:12:06;39750.78;;;-138.15;15.80
20897;BME280;10608;42.600;23.398;2023-09-30T07:14:31;39636.75;;;-138.15;15.69
20897;BME280;10608;42.600;23.398;2023-09-30T07:16:56;39098.13;;;-138.15;15.60
20897;BME280;10608;42.600;23.398;2023-09-30T07:19:23;40383.88;;;-138.15;15.76
20897;BME280;10608;42.600;23.398;2023-09-30T07:21:48;62864.19;;;-138.16;100.00
20897;BME280;10608;42.600;23.398;2023-09-30T07:24:13;40383.88;;;-138.15;15.76
20897;BME280;10608;42.600;23.398;2023-09-30T07:26:40;40688.66;;;-138.15;15.51
20897;BME280;10608;42.600;23.398;2023-09-30T07:29:05;40702.44;;;-138.15;15.69
20897;BME280;10608;42.600;23.398;2023-09-30T07:31:35;40830.25;;;-138.15;15.15
20897;BME280;10608;42.600;23.398;2023-09-30T07:34:01;42332.94;;;-138.15;16.29
20897;BME280;10608;42.600;23.398;2023-09-30T07:36:26;42391.97;;;-138.15;16.04
20897;BME280;10608;42.600;23.398;2023-09-30T07:38:52;42411.66;;;-138.15;15.96
20897;BME280;10608;42.600;23.398;2023-09-30T07:41:18;42523.78;;;-138.15;16.01
20897;BME280;10608;42.600;23.398;2023-09-30T07:43:43;41805.75;;;-138.15;15.63
20897;BME280;10608;42.600;23.398;2023-09-30T07:46:09;41760.53;;;-138.15;15.63
20897;BME280;10608;42.600;23.398;2023-09-30T07:48:34;41239.31;;;-138.15;15.43
20897;BME280;10608;42.600;23.398;2023-09-30T07:51:00;42091.00;;;-138.15;15.91
20897;BME280;10608;42.600;23.398;2023-09-30T07:53:26;44202.28;;;-138.15;17.09
20897;BME280;10608;42.600;23.398;2023-09-30T07:55:52;44749.50;;;-138.15;17.80
20897;BME280;10608;42.600;23.398;2023-09-30T07:58:19;45316.44;;;-138.15;18.15
20897;BME280;10608;42.600;23.398;2023-09-30T08:00:45;45310.53;;;-138.15;17.90
20897;BME280;10608;42.600;23.398;2023-09-30T08:03:11;45367.63;;;-138.15;18.07
20897;BME280;10608;42.600;23.398;2023-09-30T08:05:37;45017.22;;;-138.15;17.55
20897;BME280;10608;42.600;23.398;2023-09-30T08:08:03;44414.88;;;-138.15;17.76
20897;BME280;10608;42.600;23.398;2023-09-30T08:10:29;44407.00;;;-138.15;17.32
20897;BME280;10608;42.600;23.398;2023-09-30T08:12:57;44082.25;;;-138.15;16.42
20897;BME280;10608;42.600;23.398;2023-09-30T08:15:24;44340.06;;;-138.15;16.62
20897;BME280;10608;42.600;23.398;2023-09-30T08:17:49;44426.69;;;-138.15;15.92
20897;BME280;10608;42.600;23.398;2023-09-30T08:20:15;45192.41;;;-138.15;15.63
20897;BME280;10608;42.600;23.398;2023-09-30T08:22:40;44889.25;;;-138.15;15.33
20897;BME280;10608;42.600;23.398;2023-09-30T08:25:06;44889.25;;;-138.15;14.46
20897;BME280;10608;42.600;23.398;2023-09-30T08:27:32;45279.03;;;-138.15;15.36
20897;BME280;10608;42.600;23.398;2023-09-30T08:29:57;46271.41;;;-138.15;16.40
20897;BME280;10608;42.600;23.398;2023-09-30T08:32:23;46041.03;;;-138.15;16.95
20897;BME280;10608;42.600;23.398;2023-09-30T08:34:48;45596.03;;;-138.15;16.65
20897;BME280;10608;42.600;23.398;2023-09-30T08:37:14;45519.25;;;-138.15;15.25
20897;BME280;10608;42.600;23.398;2023-09-30T08:39:40;45198.31;;;-138.15;15.21
20897;BME280;10608;42.600;23.398;2023-09-30T08:42:09;45391.25;;;-138.15;16.11
20897;BME280;10608;42.600;23.398;2023-09-30T08:44:40;46048.91;;;-138.15;15.71
20897;BME280;10608;42.600;23.398;2023-09-30T08:47:06;46572.72;;;-138.15;15.93
20897;BME280;10608;42.600;23.398;2023-09-30T08:49:40;46515.59;;;-138.15;16.09
20897;BME280;10608;42.600;23.398;2023-09-30T08:52:06;46694.81;;;-138.15;16.77
20897;BME280;10608;42.600;23.398;2023-09-30T08:54:34;47254.19;;;-138.15;16.79
20897;BME280;10608;42.600;23.398;2023-09-30T08:57:00;46984.34;;;-138.15;16.03
20897;BME280;10608;42.600;23.398;2023-09-30T08:59:26;46663.31;;;-138.15;16.05
20897;BME280;10608;42.600;23.398;2023-09-30T09:01:52;46493.94;;;-138.15;16.30
20897;BME280;10608;42.600;23.398;2023-09-30T09:04:18;45932.72;;;-138.15;16.39
20897;BME280;10608;42.600;23.398;2023-09-30T09:06:43;45747.63;;;-138.15;15.51
20897;BME280;10608;42.600;23.398;2023-09-30T09:09:16;46525.44;;;-138.15;16.04
20897;BME280;10608;42.600;23.398;2023-09-30T09:11:47;46293.06;;;-138.15;16.44
20897;BME280;10608;42.600;23.398;2023-09-30T09:14:13;45560.59;;;-138.15;16.10
20897;BME280;10608;42.600;23.398;2023-09-30T09:16:51;45596.03;;;-138.15;15.91
20897;BME280;10608;42.600;23.398;2023-09-30T09:19:18;45584.22;;;-138.15;15.24
20897;BME280;10608;42.600;23.398;2023-09-30T09:21:57;45414.88;;;-138.15;14.80
20897;BME280;10608;42.600;23.398;2023-09-30T09:24:43;45479.88;;;-138.15;15.30
20897;BME280;10608;42.600;23.398;2023-09-30T09:27:13;45651.16;;;-138.15;15.45
20897;BME280;10608;42.600;23.398;2023-09-30T09:29:42;46135.53;;;-138.15;15.96
20897;BME280;10608;42.600;23.398;2023-09-30T09:32:16;45373.53;;;-138.15;15.00
20897;BME280;10608;42.600;23.398;2023-09-30T09:34:43;45830.34;;;-138.15;14.97
20897;BME280;10608;42.600;23.398;2023-09-30T09:37:20;46072.53;;;-138.15;15.07
20897;BME280;10608;42.600;23.398;2023-09-30T09:39:56;46123.72;;;-138.15;16.25
20897;BME280;10608;42.600;23.398;2023-09-30T09:42:28;46537.28;;;-138.15;16.24
20897;BME280;10608;42.600;23.398;2023-09-30T09:45:04;46527.41;;;-138.15;16.35
20897;BME280;10608;42.600;23.398;2023-09-30T09:47:34;46249.75;;;-138.15;16.68
20897;BME280;10608;42.600;23.398;2023-09-30T09:49:59;45926.81;;;-138.15;15.86
20897;BME280;10608;42.600;23.398;2023-09-30T09:52:28;45615.72;;;-138.15;15.57
20897;BME280;10608;42.600;23.398;2023-09-30T09:54:54;45385.34;;;-138.15;15.27
20897;BME280;10608;42.600;23.398;2023-09-30T09:57:20;45712.19;;;-138.15;15.35
20897;BME280;10608;42.600;23.398;2023-09-30T09:59:46;46194.63;;;-138.15;16.11
20897;BME280;10608;42.600;23.398;2023-09-30T10:02:16;47305.41;;;-138.15;16.84
20897;BME280;10608;42.600;23.398;2023-09-30T10:04:44;47650.13;;;-138.15;17.65
20897;BME280;10608;42.600;23.398;2023-09-30T10:07:23;48044.13;;;-138.15;18.11
20897;BME280;10608;42.600;23.398;2023-09-30T10:09:51;48237.19;;;-138.15;18.88
20897;BME280;10608;42.600;23.398;2023-09-30T10:12:18;48637.16;;;-138.15;19.56
20897;BME280;10608;42.600;23.398;2023-09-30T10:14:44;48660.81;;;-138.15;20.11
20897;BME280;10608;42.600;23.398;2023-09-30T10:17:09;48448.00;;;-138.15;20.65
20897;BME280;10608;42.600;23.398;2023-09-30T10:19:35;48660.81;;;-138.15;19.26
20897;BME280;10608;42.600;23.398;2023-09-30T10:24:45;48863.78;;;-138.15;20.11
20897;BME280;10608;42.600;23.398;2023-09-30T10:35:20;48948.50;;;-138.15;21.26
20897;BME280;10608;42.600;23.398;2023-09-30T10:37:46;48982.00;;;-138.15;21.66
20897;BME280;10608;42.600;23.398;2023-09-30T10:40:29;49094.31;;;-138.15;20.67
20897;BME280;10608;42.600;23.398;2023-09-30T10:42:55;49165.28;;;-138.15;21.33
20897;BME280;10608;42.600;23.398;2023-09-30T10:50:57;49090.38;;;-138.15;21.19
20897;BME280;10608;42.600;23.398;2023-09-30T10:53:26;49112.06;;;-138.15;20.52
20897;BME280;10608;42.600;23.398;2023-09-30T10:55:59;49102.22;;;-138.15;20.72
20897;BME280;10608;42.600;23.398;2023-09-30T10:58:51;49346.56;;;-138.15;20.41
20897;BME280;10608;42.600;23.398;2023-09-30T11:01:19;49393.88;;;-138.15;20.46
20897;BME280;10608;42.600;23.398;2023-09-30T11:03:46;49324.91;;;-138.15;20.14
20897;BME280;10608;42.600;23.398;2023-09-30T11:06:16;49417.53;;;-138.15;20.56
20897;BME280;10608;42.600;23.398;2023-09-30T11:08:58;49531.84;;;-138.15;20.16
20897;BME280;10608;42.600;23.398;2023-09-30T11:16:54;49551.53;;;-138.15;20.26
20897;BME280;10608;42.600;23.398;2023-09-30T11:19:21;49685.56;;;-138.15;20.54
20897;BME280;10608;42.600;23.398;2023-09-30T11:21:48;49636.28;;;-138.15;20.92
20897;BME280;10608;42.600;23.398;2023-09-30T11:24:15;49498.31;;;-138.15;20.79
20897;BME280;10608;42.600;23.398;2023-09-30T11:26:40;49500.28;;;-138.15;20.86
20897;BME280;10608;42.600;23.398;2023-09-30T11:31:47;49413.59;;;-138.15;20.91
20897;BME280;10608;42.600;23.398;2023-09-30T11:34:15;49454.97;;;-138.15;20.17
20897;BME280;10608;42.600;23.398;2023-09-30T11:36:48;49354.47;;;-138.15;20.21
20897;BME280;10608;42.600;23.398;2023-09-30T11:39:27;49330.81;;;-138.15;20.70
20897;BME280;10608;42.600;23.398;2023-09-30T11:41:53;49352.50;;;-138.15;20.46
20897;BME280;10608;42.600;23.398;2023-09-30T11:44:21;49417.53;;;-138.15;21.35
20897;BME280;10608;42.600;23.398;2023-09-30T11:46:54;49504.25;;;-138.15;21.22
20897;BME280;10608;42.600;23.398;2023-09-30T11:51:58;49620.53;;;-138.15;21.97
20897;BME280;10608;42.600;23.398;2023-09-30T11:54:31;49573.22;;;-138.15;21.54
20897;BME280;10608;42.600;23.398;2023-09-30T11:57:01;49449.06;;;-138.15;21.95
20897;BME280;10608;42.600;23.398;2023-09-30T11:59:27;49531.84;;;-138.15;21.02
20897;BME280;10608;42.600;23.398;2023-09-30T12:01:53;49553.50;;;-138.15;21.48
20897;BME280;10608;42.600;23.398;2023-09-30T12:04:18;49569.28;;;-138.15;21.45
20897;BME280;10608;42.600;23.398;2023-09-30T12:06:45;49563.38;;;-138.15;21.84
20897;BME280;10608;42.600;23.398;2023-09-30T12:09:12;49488.47;;;-138.15;22.09
20897;BME280;10608;42.600;23.398;2023-09-30T12:11:41;49433.28;;;-138.15;22.30
20897;BME280;10608;42.600;23.398;2023-09-30T12:14:12;49419.50;;;-138.15;21.21
20897;BME280;10608;42.600;23.398;2023-09-30T12:16:38;49340.66;;;-138.15;22.07
20897;BME280;10608;42.600;23.398;2023-09-30T12:19:04;49441.16;;;-138.15;21.90
20897;BME280;10608;42.600;23.398;2023-09-30T12:21:31;49486.50;;;-138.15;22.05
20897;BME280;10608;42.600;23.398;2023-09-30T12:23:57;49516.06;;;-138.15;21.72
20897;BME280;10608;42.600;23.398;2023-09-30T12:26:22;49557.44;;;-138.15;22.26
20897;BME280;10608;42.600;23.398;2023-09-30T12:28:48;49630.38;;;-138.15;21.66
20897;BME280;10608;42.600;23.398;2023-09-30T12:31:13;49665.84;;;-138.15;22.17
20897;BME280;10608;42.600;23.398;2023-09-30T12:33:39;49594.91;;;-138.15;22.17
20897;BME280;10608;42.600;23.398;2023-09-30T12:36:05;49585.03;;;-138.15;22.02
20897;BME280;10608;42.600;23.398;2023-09-30T12:38:31;49549.56;;;-138.15;22.07
20897;BME280;10608;42.600;23.398;2023-09-30T12:40:56;49468.75;;;-138.15;22.20
20897;BME280;10608;42.600;23.398;2023-09-30T12:43:22;49425.41;;;-138.15;22.30
20897;BME280;10608;42.600;23.398;2023-09-30T12:45:48;49504.25;;;-138.15;21.79
20897;BME280;10608;42.600;23.398;2023-09-30T12:48:14;49559.41;;;-138.15;21.94
20897;BME280;10608;42.600;23.398;2023-09-30T12:50:40;49484.53;;;-138.15;22.10
20897;BME280;10608;42.600;23.398;2023-09-30T12:53:06;49569.28;;;-138.15;22.20
20897;BME280;10608;42.600;23.398;2023-09-30T12:55:32;49596.88;;;-138.15;21.68
20897;BME280;10608;42.600;23.398;2023-09-30T12:57:57;49579.13;;;-138.15;21.79